Time;durP1;ratioP1;P1;durP2;ratioP2;P2;SDS_P1;SDS_P2;PMS_P1;PMS_P2;Temp;Humidity;BMP_temperature;BMP_pressure;BME280_temperature;BME280_humidity;BME280_pressure;Samples;Min_cycle;Max_cycle;Signal;HPM_P1;HPM_P2
2022/04/29 00:00:08;;;;;;;;;32.00;27.00;;;;;-143.93;100.00;62969.28;5007514;28;8819;-67
2022/04/29 00:02:35;;;;;;;;;29.25;25.50;;;;;-143.93;100.00;62969.28;5005627;28;8828;-68
2022/04/29 00:05:01;;;;;;;;;24.50;23.75;;;;;-143.93;100.00;62969.28;5004294;28;8816;-67
2022/04/29 00:07:27;;;;;;;;;27.25;25.75;;;;;-143.93;100.00;62969.28;5013563;28;8821;-67
2022/04/29 00:09:52;;;;;;;;;31.25;25.25;;;;;-143.93;100.00;62969.28;5000909;28;8824;-67
2022/04/29 00:12:19;;;;;;;;;30.50;26.75;;;;;-143.93;100.00;62969.28;5003384;28;8816;-68
2022/04/29 00:14:44;;;;;;;;;27.25;24.50;;;;;-143.93;100.00;62969.28;5006404;28;8808;-68
2022/04/29 00:17:10;;;;;;;;;32.50;29.75;;;;;-143.93;100.00;62969.28;4992787;28;8854;-68
2022/04/29 00:19:35;;;;;;;;;32.25;25.50;;;;;-143.93;100.00;62969.28;4994551;28;8792;-68
2022/04/29 00:22:01;;;;;;;;;27.75;24.25;;;;;-143.93;100.00;62969.28;4995099;28;9646;-68
2022/04/29 00:24:26;;;;;;;;;23.25;22.50;;;;;-143.93;100.00;62969.28;4995895;28;8817;-67
2022/04/29 00:26:53;;;;;;;;;26.25;24.25;;;;;-143.93;100.00;62969.28;5004706;27;8820;-67
2022/04/29 00:29:18;;;;;;;;;27.75;22.00;;;;;-143.93;100.00;62969.28;5009145;28;8895;-68
2022/04/29 00:31:44;;;;;;;;;22.50;20.50;;;;;-143.93;100.00;62969.28;5007939;28;8829;-67
2022/04/29 00:34:10;;;;;;;;;29.00;25.75;;;;;-143.93;100.00;62969.28;4999587;28;8824;-67
2022/04/29 00:36:35;;;;;;;;;26.25;22.00;;;;;-143.93;100.00;62969.28;5005505;28;8926;-68
2022/04/29 00:39:01;;;;;;;;;28.25;24.75;;;;;-143.93;100.00;62969.28;5000878;28;8958;-66
2022/04/29 00:41:27;;;;;;;;;24.50;21.25;;;;;-143.93;100.00;62969.28;5007377;28;8887;-68
2022/04/29 00:44:09;;;;;;;;;26.25;23.75;;;;;-143.93;100.00;62969.28;4998035;28;8836;-68
2022/04/29 00:46:40;;;;;;;;;25.00;23.00;;;;;-143.93;100.00;62969.28;4996448;28;8839;-66
2022/04/29 00:49:07;;;;;;;;;23.75;22.25;;;;;-143.93;100.00;62969.28;4993901;28;8829;-67
2022/04/29 00:51:35;;;;;;;;;31.50;27.25;;;;;-143.93;100.00;62969.28;4994895;28;8796;-67
2022/04/29 00:54:02;;;;;;;;;28.75;26.75;;;;;-143.93;100.00;62969.28;5000158;28;8801;-67
2022/04/29 00:56:30;;;;;;;;;24.50;23.25;;;;;-143.93;100.00;62969.28;4992215;28;8885;-67
2022/04/29 00:59:02;;;;;;;;;27.75;22.75;;;;;-143.93;100.00;62969.28;5002902;28;8818;-67
2022/04/29 01:01:31;;;;;;;;;31.00;26.00;;;;;-143.93;100.00;62969.28;5004452;28;8831;-67
2022/04/29 01:03:58;;;;;;;;;29.75;25.25;;;;;-143.93;100.00;62969.28;5002691;28;8786;-67
2022/04/29 01:06:25;;;;;;;;;30.75;25.25;;;;;-143.93;100.00;62969.28;5002693;28;8809;-67
2022/04/29 01:08:51;;;;;;;;;26.00;23.50;;;;;-143.93;100.00;62969.28;5004489;27;8824;-67
2022/04/29 01:11:21;;;;;;;;;26.25;23.00;;;;;-143.93;100.00;62969.28;4991867;27;8866;-67
2022/04/29 01:13:46;;;;;;;;;32.25;26.00;;;;;-143.93;100.00;62969.28;4993582;28;8830;-67
2022/04/29 01:16:11;;;;;;;;;32.50;27.50;;;;;-143.93;100.00;62969.28;4994424;28;8824;-67
2022/04/29 01:18:37;;;;;;;;;27.00;21.50;;;;;-143.93;100.00;62969.28;4996037;28;17107;-67
2022/04/29 01:21:05;;;;;;;;;33.00;27.00;;;;;-143.93;100.00;62969.28;5002526;28;8811;-67
2022/04/29 01:23:32;;;;;;;;;32.75;24.00;;;;;-143.93;100.00;62969.28;5089095;27;8982;-67
2022/04/29 01:25:58;;;;;;;;;34.50;29.00;;;;;-143.93;100.00;62969.28;5004937;28;8802;-67
2022/04/29 01:28:26;;;;;;;;;31.25;26.75;;;;;-143.93;100.00;62969.28;5004425;28;8844;-67
2022/04/29 01:30:52;;;;;;;;;28.50;25.50;;;;;-143.93;100.00;62969.28;4994245;28;8818;-67
2022/04/29 01:33:19;;;;;;;;;28.00;28.00;;;;;-143.93;100.00;62969.28;4995609;28;8864;-67
2022/04/29 01:35:45;;;;;;;;;31.00;25.50;;;;;-143.93;100.00;62969.28;5035871;28;8813;-67
2022/04/29 01:38:10;;;;;;;;;26.75;24.25;;;;;-143.93;100.00;62969.28;5004603;28;8817;-67
2022/04/29 01:40:36;;;;;;;;;32.00;26.50;;;;;-143.93;100.00;62969.28;4993320;28;8812;-67
2022/04/29 01:43:02;;;;;;;;;30.25;27.50;;;;;-143.93;100.00;62969.28;4993919;28;8796;-68
2022/04/29 01:45:28;;;;;;;;;36.50;29.50;;;;;-143.93;100.00;62969.28;4994310;28;8835;-67
2022/04/29 01:47:53;;;;;;;;;32.25;28.25;;;;;-143.93;100.00;62969.28;5006045;28;8833;-67
2022/04/29 01:50:18;;;;;;;;;31.00;27.50;;;;;-143.93;100.00;62969.28;4990364;27;8823;-68
2022/04/29 01:52:44;;;;;;;;;30.50;26.00;;;;;-143.93;100.00;62969.28;5004031;28;8848;-67
2022/04/29 01:55:09;;;;;;;;;35.00;26.00;;;;;-143.93;100.00;62969.28;5001382;27;8902;-68
2022/04/29 01:57:35;;;;;;;;;33.25;26.25;;;;;-143.93;100.00;62969.28;5002640;28;8910;-67
2022/04/29 02:00:01;;;;;;;;;37.00;29.50;;;;;-143.93;100.00;62969.28;4994428;28;8828;-68
2022/04/29 02:02:26;;;;;;;;;31.75;26.00;;;;;-143.93;100.00;62969.28;5006796;28;8816;-67
2022/04/29 02:04:51;;;;;;;;;32.50;28.00;;;;;-143.93;100.00;62969.28;5028311;28;10061;-67
2022/04/29 02:07:17;;;;;;;;;31.75;30.75;;;;;-143.93;100.00;62969.28;5007605;27;8837;-67
2022/04/29 02:09:43;;;;;;;;;34.25;26.75;;;;;-143.93;100.00;62969.28;5001345;28;8809;-67
2022/04/29 02:12:09;;;;;;;;;30.50;25.25;;;;;-143.93;100.00;62969.28;5004155;28;8844;-67
2022/04/29 02:14:42;;;;;;;;;34.00;28.00;;;;;-143.93;100.00;62969.28;4990006;28;8910;-68
2022/04/29 02:17:09;;;;;;;;;32.75;27.00;;;;;-143.93;100.00;62969.28;5075585;27;8812;-68
2022/04/29 02:19:36;;;;;;;;;30.00;26.00;;;;;-143.93;100.00;62969.28;4993107;28;8804;-67
2022/04/29 02:22:03;;;;;;;;;28.25;22.75;;;;;-143.93;100.00;62969.28;4993436;28;8816;-67
2022/04/29 02:24:30;;;;;;;;;32.00;28.00;;;;;-143.93;100.00;62969.28;4993607;28;8796;-67
2022/04/29 02:26:55;;;;;;;;;28.00;25.50;;;;;-143.93;100.00;62969.28;4997600;28;8801;-67
2022/04/29 02:29:21;;;;;;;;;34.00;27.50;;;;;-143.93;100.00;62969.28;5005969;28;8832;-67
2022/04/29 02:31:47;;;;;;;;;32.75;29.50;;;;;-143.93;100.00;62969.28;5003849;28;8805;-67
2022/04/29 02:34:12;;;;;;;;;37.25;28.25;;;;;-143.93;100.00;62969.28;4995138;28;8897;-67
2022/04/29 02:36:40;;;;;;;;;28.50;27.50;;;;;-143.93;100.00;62969.28;5035272;27;8825;-67
2022/04/29 02:39:06;;;;;;;;;31.00;27.00;;;;;-143.93;100.00;62969.28;4999381;28;8907;-67
2022/04/29 02:41:31;;;;;;;;;33.75;26.00;;;;;-143.93;100.00;62969.28;5006045;28;8851;-67
2022/04/29 02:43:56;;;;;;;;;30.75;25.25;;;;;-143.93;100.00;62969.28;4991550;28;8815;-67
2022/04/29 02:46:22;;;;;;;;;36.50;29.00;;;;;-143.93;100.00;62969.28;5000508;28;8805;-67
2022/04/29 02:48:48;;;;;;;;;36.00;28.75;;;;;-143.93;100.00;62969.28;4997692;28;8924;-67
2022/04/29 02:51:15;;;;;;;;;32.00;28.50;;;;;-143.93;100.00;62969.28;4991871;28;8866;-68
2022/04/29 02:53:40;;;;;;;;;30.50;29.50;;;;;-143.93;100.00;62969.28;5004417;28;8837;-68
2022/04/29 02:56:06;;;;;;;;;32.25;28.75;;;;;-143.93;100.00;62969.28;5003290;28;8966;-67
2022/04/29 02:58:31;;;;;;;;;30.00;26.50;;;;;-143.93;100.00;62969.28;5000872;28;8853;-67
2022/04/29 03:00:57;;;;;;;;;38.50;29.50;;;;;-143.93;100.00;62969.28;4993344;28;11371;-67
2022/04/29 03:03:22;;;;;;;;;28.50;25.00;;;;;-143.93;100.00;62969.28;4993025;28;8833;-67
2022/04/29 03:05:48;;;;;;;;;30.25;27.75;;;;;-143.93;100.00;62969.28;5010383;28;8800;-68
2022/04/29 03:08:13;;;;;;;;;35.75;28.00;;;;;-143.93;100.00;62969.28;5005049;28;9653;-67
2022/04/29 03:10:38;;;;;;;;;32.25;26.75;;;;;-143.93;100.00;62969.28;5004363;28;8837;-68
2022/04/29 03:13:04;;;;;;;;;38.25;28.25;;;;;-143.93;100.00;62969.28;5004072;28;8817;-68
2022/04/29 03:15:30;;;;;;;;;34.00;28.00;;;;;-143.93;100.00;62969.28;5003503;28;8792;-68
2022/04/29 03:20:41;;;;;;;;;36.25;31.25;;;;;-143.93;100.00;62969.28;4997583;28;8821;-67
2022/04/29 03:23:08;;;;;;;;;34.50;30.25;;;;;-143.93;100.00;62969.28;4999111;28;8873;-67
2022/04/29 03:25:34;;;;;;;;;42.25;33.75;;;;;-143.93;100.00;62969.28;4997202;28;8808;-67
2022/04/29 03:27:59;;;;;;;;;37.00;31.00;;;;;-143.93;100.00;62969.28;4995964;28;8824;-67
2022/04/29 03:30:24;;;;;;;;;35.75;31.25;;;;;-143.93;100.00;62969.28;4996260;28;8839;-67
2022/04/29 03:32:54;;;;;;;;;36.00;27.50;;;;;-143.93;100.00;62969.28;4994137;28;9445;-67
2022/04/29 03:35:20;;;;;;;;;38.00;32.00;;;;;-143.93;100.00;62969.28;4992502;28;8814;-67
2022/04/29 03:37:46;;;;;;;;;42.00;32.25;;;;;-143.93;100.00;62969.28;4993737;28;8988;-67
2022/04/29 03:40:14;;;;;;;;;43.00;35.00;;;;;-143.93;100.00;62969.28;4995589;28;8843;-68
2022/04/29 03:42:39;;;;;;;;;34.75;27.50;;;;;-143.93;100.00;62969.28;4997820;28;8833;-67
2022/04/29 03:45:05;;;;;;;;;40.00;31.25;;;;;-143.93;100.00;62969.28;5006602;28;8813;-68
2022/04/29 03:47:31;;;;;;;;;34.75;31.25;;;;;-143.93;100.00;62969.28;5017900;28;8809;-67
2022/04/29 03:49:56;;;;;;;;;34.00;29.25;;;;;-143.93;100.00;62969.28;5004915;28;8847;-67
2022/04/29 03:52:21;;;;;;;;;43.50;34.00;;;;;-143.93;100.00;62969.28;5003421;28;8833;-68
2022/04/29 03:54:47;;;;;;;;;34.75;29.00;;;;;-143.93;100.00;62969.28;5008503;28;13530;-67
2022/04/29 03:57:12;;;;;;;;;42.00;33.00;;;;;-143.93;100.00;62969.28;5003455;28;16846;-68
2022/04/29 03:59:37;;;;;;;;;35.50;30.50;;;;;-143.93;100.00;62969.28;4997737;28;9210;-68
2022/04/29 04:02:05;;;;;;;;;40.75;32.25;;;;;-143.93;100.00;62969.28;5005872;28;8870;-68
2022/04/29 04:04:30;;;;;;;;;35.75;33.00;;;;;-143.93;100.00;62969.28;5005380;28;8801;-67
2022/04/29 04:07:01;;;;;;;;;31.75;28.25;;;;;-143.93;100.00;62969.28;5003493;28;8824;-67
2022/04/29 04:09:26;;;;;;;;;37.75;33.25;;;;;-143.93;100.00;62969.28;5003385;27;8824;-67
2022/04/29 04:11:52;;;;;;;;;41.00;32.50;;;;;-143.93;100.00;62969.28;5003316;28;8846;-68
2022/04/29 04:14:20;;;;;;;;;39.50;31.75;;;;;-143.93;100.00;62969.28;5006387;28;8805;-67
2022/04/29 04:16:45;;;;;;;;;39.50;33.50;;;;;-143.93;100.00;62969.28;5013409;28;8849;-67
2022/04/29 04:19:11;;;;;;;;;39.25;33.50;;;;;-143.93;100.00;62969.28;5002631;28;8837;-67
2022/04/29 04:21:36;;;;;;;;;38.25;32.00;;;;;-143.93;100.00;62969.28;4998331;28;8819;-67
2022/04/29 04:24:02;;;;;;;;;36.25;33.00;;;;;-143.93;100.00;62969.28;4999673;28;20364;-67
2022/04/29 04:26:27;;;;;;;;;40.75;32.00;;;;;-143.93;100.00;62969.28;4990958;28;8853;-67
2022/04/29 04:28:52;;;;;;;;;44.50;31.50;;;;;-143.93;100.00;62969.28;4994245;28;8842;-67
2022/04/29 04:31:21;;;;;;;;;50.75;34.50;;;;;-143.93;100.00;62969.28;5002360;28;8821;-67
2022/04/29 04:33:47;;;;;;;;;42.25;33.00;;;;;-143.93;100.00;62969.28;5000471;27;8969;-67
2022/04/29 04:36:12;;;;;;;;;42.00;31.75;;;;;-143.93;100.00;62969.28;4995488;28;8817;-68
2022/04/29 04:38:38;;;;;;;;;33.25;29.50;;;;;-143.93;100.00;62969.28;4991324;28;8827;-67
2022/04/29 04:41:03;;;;;;;;;40.50;30.25;;;;;-143.93;100.00;62969.28;4993712;28;8820;-68
2022/04/29 04:43:29;;;;;;;;;44.00;32.75;;;;;-143.93;100.00;62969.28;5004528;28;9573;-67
2022/04/29 04:45:54;;;;;;;;;35.25;31.50;;;;;-143.93;100.00;62969.28;5007759;28;15093;-68
2022/04/29 04:48:20;;;;;;;;;42.00;34.50;;;;;-143.93;100.00;62969.28;5010656;28;8825;-67
2022/04/29 04:50:45;;;;;;;;;37.25;33.00;;;;;-143.93;100.00;62969.28;4992783;28;8834;-67
2022/04/29 04:53:11;;;;;;;;;39.50;33.00;;;;;-143.93;100.00;62969.28;4996027;28;8800;-68
2022/04/29 04:55:37;;;;;;;;;40.25;34.25;;;;;-143.93;100.00;62969.28;5004644;28;8897;-68
2022/04/29 04:58:02;;;;;;;;;45.00;33.25;;;;;-143.93;100.00;62969.28;5002757;28;8790;-67
2022/04/29 05:00:28;;;;;;;;;33.50;30.75;;;;;-143.93;100.00;62969.28;5001345;28;8821;-68
2022/04/29 05:02:53;;;;;;;;;32.25;29.75;;;;;-143.93;100.00;62969.28;5000390;28;8825;-67
2022/04/29 05:05:19;;;;;;;;;44.67;32.00;;;;;-143.93;100.00;62969.28;4991292;28;18074;-68
2022/04/29 05:07:44;;;;;;;;;36.75;32.50;;;;;-143.93;100.00;62969.28;4994150;28;9153;-67
2022/04/29 05:10:10;;;;;;;;;36.00;31.75;;;;;-143.93;100.00;62969.28;5000301;28;8894;-67
2022/04/29 05:12:43;;;;;;;;;34.00;30.00;;;;;-143.93;100.00;62969.28;5002535;28;8806;-67
2022/04/29 05:15:10;;;;;;;;;34.50;30.50;;;;;-143.93;100.00;62969.28;5003508;28;8807;-68
2022/04/29 05:17:39;;;;;;;;;34.25;30.75;;;;;-143.93;100.00;62969.28;5090041;27;8831;-68
2022/04/29 05:20:05;;;;;;;;;37.25;32.50;;;;;-143.93;100.00;62969.28;4992510;28;8804;-67
2022/04/29 05:22:31;;;;;;;;;38.75;30.75;;;;;-143.93;100.00;62969.28;5006209;28;8799;-67
2022/04/29 05:24:57;;;;;;;;;47.00;33.50;;;;;-143.93;100.00;62969.28;5005126;28;9054;-67
2022/04/29 05:27:22;;;;;;;;;38.75;33.00;;;;;-143.93;100.00;62969.28;5002421;28;8916;-67
2022/04/29 05:29:48;;;;;;;;;39.25;32.25;;;;;-143.93;100.00;62969.28;5014093;28;8825;-67
2022/04/29 05:32:15;;;;;;;;;41.00;31.50;;;;;-143.93;100.00;62969.28;5014293;28;8832;-67
2022/04/29 05:34:40;;;;;;;;;41.50;32.25;;;;;-143.93;100.00;62969.28;5006691;28;8786;-67
2022/04/29 05:37:06;;;;;;;;;39.00;32.25;;;;;-143.93;100.00;62969.28;5002018;28;8825;-67
2022/04/29 05:42:15;;;;;;;;;39.75;32.00;;;;;-143.93;100.00;62969.28;5001410;28;9528;-67
2022/04/29 05:44:42;;;;;;;;;35.50;32.00;;;;;-143.93;100.00;62969.28;4995095;28;8831;-67
2022/04/29 05:47:07;;;;;;;;;38.25;33.50;;;;;-143.93;100.00;62969.28;5004999;28;8794;-67
2022/04/29 05:49:33;;;;;;;;;30.75;30.00;;;;;-143.93;100.00;62969.28;4994493;28;8861;-67
2022/04/29 05:52:00;;;;;;;;;38.00;31.25;;;;;-143.93;100.00;62969.28;4997254;28;8885;-67
2022/04/29 05:54:25;;;;;;;;;37.50;30.50;;;;;-143.93;100.00;62969.28;4999213;28;8969;-67
2022/04/29 05:56:50;;;;;;;;;36.50;30.75;;;;;-143.93;100.00;62969.28;5007993;28;8935;-67
2022/04/29 05:59:16;;;;;;;;;41.25;33.50;;;;;-143.93;100.00;62969.28;4991045;28;8958;-67
2022/04/29 06:01:41;;;;;;;;;35.00;30.25;;;;;-143.93;100.00;62969.28;5000830;28;8805;-67
2022/04/29 06:04:06;;;;;;;;;34.50;29.00;;;;;-143.93;100.00;62969.28;4998400;28;8831;-67
2022/04/29 06:06:33;;;;;;;;;31.75;28.00;;;;;-143.93;100.00;62969.28;4996125;28;8813;-68
2022/04/29 06:08:58;;;;;;;;;34.00;29.75;;;;;-143.93;100.00;62969.28;5018413;28;8903;-67
2022/04/29 06:11:24;;;;;;;;;36.25;30.00;;;;;-143.93;100.00;62969.28;5007256;27;8817;-67
2022/04/29 06:13:50;;;;;;;;;32.50;28.75;;;;;-143.93;100.00;62969.28;5003928;28;8829;-67
2022/04/29 06:16:17;;;;;;;;;34.00;25.25;;;;;-143.93;100.00;62969.28;5001497;28;8793;-68
2022/04/29 06:18:43;;;;;;;;;36.00;30.25;;;;;-143.93;100.00;62969.28;5001675;28;8827;-67
2022/04/29 06:21:08;;;;;;;;;33.50;30.50;;;;;-143.93;100.00;62969.28;5002608;28;8825;-67
2022/04/29 06:23:34;;;;;;;;;41.25;33.00;;;;;-143.93;100.00;62969.28;4990073;28;8868;-67
2022/04/29 06:25:59;;;;;;;;;34.00;29.00;;;;;-143.93;100.00;62969.28;4992448;28;8868;-67
2022/04/29 06:28:24;;;;;;;;;38.50;31.50;;;;;-143.93;100.00;62969.28;5001868;28;8813;-68
2022/04/29 06:30:50;;;;;;;;;34.25;29.50;;;;;-143.93;100.00;62969.28;5000979;28;8833;-67
2022/04/29 06:33:16;;;;;;;;;41.25;32.50;;;;;-143.93;100.00;62969.28;4999658;28;8824;-67
2022/04/29 06:35:42;;;;;;;;;41.25;32.00;;;;;-143.93;100.00;62969.28;5004658;28;8809;-67
2022/04/29 06:38:12;;;;;;;;;40.50;31.75;;;;;-143.93;100.00;62969.28;5004213;28;8805;-67
2022/04/29 06:40:37;;;;;;;;;39.50;31.00;;;;;-143.93;100.00;62969.28;5004355;28;8806;-67
2022/04/29 06:43:03;;;;;;;;;40.25;30.25;;;;;-143.93;100.00;62969.28;5006308;28;8810;-68
2022/04/29 06:45:28;;;;;;;;;43.50;33.00;;;;;-143.93;100.00;62969.28;5014190;28;8843;-67
2022/04/29 06:47:53;;;;;;;;;45.75;32.75;;;;;-143.93;100.00;62969.28;5034580;27;8856;-68
2022/04/29 06:50:19;;;;;;;;;33.50;27.25;;;;;-143.93;100.00;62969.28;4997932;28;8799;-68
2022/04/29 06:52:44;;;;;;;;;34.00;28.75;;;;;-143.93;100.00;62969.28;5005519;28;8972;-68
2022/04/29 06:55:10;;;;;;;;;32.50;27.00;;;;;-143.93;100.00;62969.28;5001712;28;8882;-68
2022/04/29 06:57:35;;;;;;;;;34.25;29.75;;;;;-143.93;100.00;62969.28;5009177;28;8971;-69
2022/04/29 07:00:01;;;;;;;;;35.75;29.50;;;;;-143.93;100.00;62969.28;5004171;28;8956;-68
2022/04/29 07:02:26;;;;;;;;;39.75;29.25;;;;;-143.93;100.00;62969.28;4994890;28;8820;-68
2022/04/29 07:04:54;;;;;;;;;41.00;34.25;;;;;-143.93;100.00;62969.28;5006074;28;8924;-68
2022/04/29 07:07:20;;;;;;;;;38.50;32.00;;;;;-143.93;100.00;62969.28;4995577;28;8819;-68
2022/04/29 07:09:46;;;;;;;;;36.00;29.00;;;;;-143.93;100.00;62969.28;4992764;28;8871;-68
2022/04/29 07:12:11;;;;;;;;;36.25;31.00;;;;;-143.93;100.00;62969.28;4992900;28;8825;-68
2022/04/29 07:14:37;;;;;;;;;41.00;31.00;;;;;-143.93;100.00;62969.28;4994289;28;8837;-68
2022/04/29 07:17:03;;;;;;;;;32.75;27.50;;;;;-143.93;100.00;62969.28;5012829;28;9570;-68
2022/04/29 07:19:28;;;;;;;;;34.75;29.25;;;;;-143.93;100.00;62969.28;4997380;28;9623;-68
2022/04/29 07:21:54;;;;;;;;;31.00;29.25;;;;;-143.93;100.00;62969.28;5000673;28;9618;-68
2022/04/29 07:24:19;;;;;;;;;33.00;30.00;;;;;-143.93;100.00;62969.28;4992682;28;8829;-68
2022/04/29 07:26:45;;;;;;;;;36.50;27.75;;;;;-143.93;100.00;62969.28;4996780;28;8939;-68
2022/04/29 07:29:11;;;;;;;;;38.00;32.00;;;;;-143.93;100.00;62969.28;5002761;28;8824;-68
2022/04/29 07:31:36;;;;;;;;;41.75;31.50;;;;;-143.93;100.00;62969.28;5002538;28;8794;-68
2022/04/29 07:34:02;;;;;;;;;39.75;34.00;;;;;-143.93;100.00;62969.28;5017800;28;8830;-68
2022/04/29 07:41:44;;;;;;;;;37.50;29.75;;;;;-143.93;100.00;62969.28;5000296;28;8844;-68
2022/04/29 07:42:06;;;;;;;;;34.75;29.25;;;;;-143.93;100.00;62969.28;4993931;28;8835;-68
2022/04/29 07:44:31;;;;;;;;;30.25;26.00;;;;;-143.93;100.00;62969.28;4989581;28;8813;-68
2022/04/29 07:46:57;;;;;;;;;35.25;30.00;;;;;-143.93;100.00;62969.28;5028719;27;8930;-68
2022/04/29 07:49:22;;;;;;;;;39.75;31.25;;;;;-143.93;100.00;62969.28;5010885;27;9592;-68
2022/04/29 07:51:48;;;;;;;;;39.00;32.75;;;;;-143.93;100.00;62969.28;5000562;28;8828;-68
2022/04/29 07:54:13;;;;;;;;;35.25;30.75;;;;;-143.93;100.00;62969.28;5005445;28;8835;-68
2022/04/29 07:56:39;;;;;;;;;41.00;31.00;;;;;-143.93;100.00;62969.28;5011974;28;8827;-68
2022/04/29 07:59:05;;;;;;;;;39.00;31.75;;;;;-143.93;100.00;62969.28;5006193;27;8847;-68
2022/04/29 08:01:30;;;;;;;;;36.50;31.25;;;;;-143.93;100.00;62969.28;5004303;28;8923;-68
2022/04/29 08:03:58;;;;;;;;;38.75;32.50;;;;;-143.93;100.00;62969.28;5006378;28;8844;-69
2022/04/29 08:06:23;;;;;;;;;40.50;33.00;;;;;-143.93;100.00;62969.28;5009753;28;8829;-68
2022/04/29 08:08:49;;;;;;;;;35.75;29.00;;;;;-143.93;100.00;62969.28;5006075;27;8858;-68
2022/04/29 08:11:16;;;;;;;;;34.50;31.25;;;;;-143.93;100.00;62969.28;5005571;28;8825;-68
2022/04/29 08:13:44;;;;;;;;;39.75;34.25;;;;;-143.93;100.00;62969.28;5037011;28;8787;-68
2022/04/29 08:16:10;;;;;;;;;43.25;34.00;;;;;-143.93;100.00;62969.28;5012200;28;8814;-68
2022/04/29 08:18:35;;;;;;;;;43.50;35.00;;;;;-143.93;100.00;62969.28;5007900;28;8937;-68
2022/04/29 08:21:00;;;;;;;;;50.75;38.75;;;;;-143.93;100.00;62969.28;4994736;28;8817;-67
2022/04/29 08:23:26;;;;;;;;;41.75;35.75;;;;;-143.93;100.00;62969.28;4994126;28;8837;-68
2022/04/29 08:25:51;;;;;;;;;48.25;35.75;;;;;-143.93;100.00;62969.28;4996877;28;8834;-68
2022/04/29 08:28:16;;;;;;;;;45.75;35.00;;;;;-143.93;100.00;62969.28;4994893;28;8816;-68
2022/04/29 08:30:42;;;;;;;;;43.75;35.00;;;;;-143.93;100.00;62969.28;5004932;28;8839;-68
2022/04/29 08:33:12;;;;;;;;;47.25;36.00;;;;;-143.93;100.00;62969.28;5010387;28;8845;-68
2022/04/29 08:35:37;;;;;;;;;50.25;38.50;;;;;-143.93;100.00;62969.28;5009221;27;8853;-68
2022/04/29 08:38:04;;;;;;;;;51.75;38.50;;;;;-143.93;100.00;62969.28;5005714;28;8863;-68
2022/04/29 08:40:29;;;;;;;;;50.25;38.25;;;;;-143.93;100.00;62969.28;5012257;28;8798;-68
2022/04/29 08:42:57;;;;;;;;;50.00;37.25;;;;;-143.93;100.00;62969.28;5013360;28;9562;-68
2022/04/29 08:45:22;;;;;;;;;47.25;35.50;;;;;-143.93;100.00;62969.28;5008678;28;8925;-68
2022/04/29 08:47:47;;;;;;;;;48.25;39.00;;;;;-143.93;100.00;62969.28;5001876;28;8841;-69
2022/04/29 08:50:15;;;;;;;;;47.25;37.00;;;;;-143.93;100.00;62969.28;5011748;28;8902;-68
2022/04/29 08:52:41;;;;;;;;;71.75;53.00;;;;;-143.93;100.00;62969.28;5016967;28;8807;-69
2022/04/29 09:00:41;;;;;;;;;49.50;39.00;;;;;-143.93;100.00;62969.28;5003518;28;8802;-69
2022/04/29 09:03:10;;;;;;;;;52.75;38.25;;;;;-143.93;100.00;62969.28;4996371;28;8798;-69
2022/04/29 09:05:35;;;;;;;;;54.75;39.75;;;;;-143.93;100.00;62969.28;5012450;28;8842;-69
2022/04/29 09:08:02;;;;;;;;;1208.25;818.00;;;;;-143.93;100.00;62969.28;5007417;28;8832;-68
2022/04/29 09:10:36;;;;;;;;;62.00;47.50;;;;;-143.93;100.00;62969.28;5003852;28;8898;-69
2022/04/29 09:13:17;;;;;;;;;42.25;36.00;;;;;-143.93;100.00;62969.28;4998433;28;8819;-68
2022/04/29 09:15:51;;;;;;;;;47.00;36.00;;;;;-143.93;100.00;62969.28;4994441;28;8926;-68
2022/04/29 09:18:31;;;;;;;;;47.50;38.25;;;;;-143.93;100.00;62969.28;4992746;28;8844;-68
2022/04/29 09:20:56;;;;;;;;;48.50;37.75;;;;;-143.93;100.00;62969.28;4992671;28;9560;-68
2022/04/29 09:23:26;;;;;;;;;45.75;37.50;;;;;-143.93;100.00;62969.28;5005072;27;8879;-68
2022/04/29 09:25:51;;;;;;;;;44.00;34.00;;;;;-143.93;100.00;62969.28;5003735;28;9595;-68
2022/04/29 09:28:17;;;;;;;;;47.25;35.75;;;;;-143.93;100.00;62969.28;5002509;28;8821;-68
2022/04/29 09:30:42;;;;;;;;;46.50;37.75;;;;;-143.93;100.00;62969.28;4999662;28;10189;-68
2022/04/29 09:33:18;;;;;;;;;41.00;33.25;;;;;-143.93;100.00;62969.28;4998580;28;8824;-68
2022/04/29 09:35:45;;;;;;;;;43.25;36.75;;;;;-143.93;100.00;62969.28;5000646;28;9682;-68
2022/04/29 09:40:58;;;;;;;;;47.50;36.00;;;;;-143.93;100.00;62969.28;4991919;28;8938;-68
2022/04/29 09:43:31;;;;;;;;;50.00;36.75;;;;;-143.93;100.00;62969.28;5002011;28;8808;-68
2022/04/29 09:46:19;;;;;;;;;43.50;34.75;;;;;-143.93;100.00;62969.28;5002166;28;8829;-68
2022/04/29 09:48:57;;;;;;;;;48.00;37.25;;;;;-143.93;100.00;62969.28;5002508;28;8797;-69
2022/04/29 09:51:53;;;;;;;;;43.75;35.25;;;;;-143.93;100.00;62969.28;5002022;28;8805;-68
2022/04/29 09:54:23;;;;;;;;;48.25;36.00;;;;;-143.93;100.00;62969.28;5001929;28;9670;-68
2022/04/29 09:57:09;;;;;;;;;41.75;35.25;;;;;-143.93;100.00;62969.28;5004263;28;8874;-68
2022/04/29 10:00:10;;;;;;;;;39.75;33.25;;;;;-143.93;100.00;62969.28;5004666;28;8890;-68
2022/04/29 10:02:35;;;;;;;;;49.50;37.75;;;;;-143.93;100.00;62969.28;5073259;28;8849;-68
2022/04/29 10:05:01;;;;;;;;;47.25;36.25;;;;;-143.93;100.00;62969.28;5072463;28;9573;-68
2022/04/29 10:07:26;;;;;;;;;48.50;37.25;;;;;-143.93;100.00;62969.28;5077373;28;8821;-68
2022/04/29 10:09:54;;;;;;;;;42.50;34.25;;;;;-143.93;100.00;62969.28;5084798;28;8911;-68
2022/04/29 10:12:21;;;;;;;;;45.25;36.25;;;;;-143.93;100.00;62969.28;5087049;28;8787;-68
2022/04/29 10:14:49;;;;;;;;;44.75;35.25;;;;;-143.93;100.00;62969.28;5087490;28;8791;-68
2022/04/29 10:23:01;;;;;;;;;43.00;34.00;;;;;-143.93;100.00;62969.28;5084212;28;8811;-68
2022/04/29 10:25:28;;;;;;;;;44.75;35.25;;;;;-143.93;100.00;62969.28;5088145;28;8807;-68
2022/04/29 10:27:53;;;;;;;;;42.25;32.75;;;;;-143.93;100.00;62969.28;5087231;28;8818;-67
2022/04/29 10:30:34;;;;;;;;;48.75;34.50;;;;;-143.93;100.00;62969.28;5086755;28;9105;-67
2022/04/29 10:33:04;;;;;;;;;42.00;33.00;;;;;-143.93;100.00;62969.28;5087728;28;8876;-67
2022/04/29 10:35:39;;;;;;;;;41.25;33.50;;;;;-143.93;100.00;62969.28;5069857;28;8798;-69
2022/04/29 10:38:12;;;;;;;;;42.75;32.75;;;;;-143.93;100.00;62969.28;5021268;28;8942;-67
2022/04/29 10:40:38;;;;;;;;;35.75;31.25;;;;;-143.93;100.00;62969.28;5001456;28;8824;-69
2022/04/29 10:43:08;;;;;;;;;82.00;72.50;;;;;-143.93;100.00;62969.28;4993800;28;8800;-69
2022/04/29 10:45:35;;;;;;;;;46.00;35.25;;;;;-143.93;100.00;62969.28;4992900;28;9625;-69
2022/04/29 10:48:33;;;;;;;;;39.00;33.00;;;;;-143.93;100.00;62969.28;5041063;28;8820;-66
2022/04/29 10:51:18;;;;;;;;;41.00;33.25;;;;;-143.93;100.00;62969.28;5004704;28;8917;-69
2022/04/29 10:53:46;;;;;;;;;45.00;34.50;;;;;-143.93;100.00;62969.28;4989447;28;8888;-69
2022/04/29 10:56:26;;;;;;;;;42.00;32.25;;;;;-143.93;100.00;62969.28;5000478;28;8787;-66
2022/04/29 10:59:13;;;;;;;;;40.75;35.00;;;;;-143.93;100.00;62969.28;5002224;28;9062;-66
2022/04/29 11:01:40;;;;;;;;;36.50;32.50;;;;;-143.93;100.00;62969.28;4989326;28;8805;-67
2022/04/29 11:04:07;;;;;;;;;40.25;32.75;;;;;-143.93;100.00;62969.28;4994859;28;8795;-66
2022/04/29 11:06:49;;;;;;;;;30.00;28.25;;;;;-143.93;100.00;62969.28;4996747;28;8845;-66
2022/04/29 11:09:48;;;;;;;;;38.75;32.25;;;;;-143.93;100.00;62969.28;4996655;28;8821;-66
2022/04/29 11:12:36;;;;;;;;;33.75;29.00;;;;;-143.93;100.00;62969.28;4989994;28;8826;-66
2022/04/29 11:15:21;;;;;;;;;36.50;32.25;;;;;-143.93;100.00;62969.28;4997735;28;8804;-66
2022/04/29 11:17:47;;;;;;;;;41.00;33.75;;;;;-143.93;100.00;62969.28;4984943;28;9134;-67
2022/04/29 11:20:23;;;;;;;;;36.75;31.00;;;;;-143.93;100.00;62969.28;4975037;28;8795;-67
2022/04/29 11:25:51;;;;;;;;;32.75;27.75;;;;;-143.93;100.00;62969.28;4992281;28;8800;-67
2022/04/29 11:28:18;;;;;;;;;32.75;30.75;;;;;-143.93;100.00;62969.28;4984676;28;8820;-68